createdAt,value
2023-03-21T00:01:42.873Z,98707.50
2023-03-21T00:05:09.341Z,98712.45
2023-03-21T00:08:17.398Z,98715.45
2023-03-21T00:11:33.670Z,98711.09
2023-03-21T00:14:50.249Z,98712.56
2023-03-21T00:18:09.534Z,98710.00
2023-03-21T00:21:44.340Z,98711.17
2023-03-21T00:24:47.630Z,98713.83
2023-03-21T00:28:08.215Z,98711.41
2023-03-21T00:31:22.870Z,98702.76
2023-03-21T00:34:43.332Z,98706.27
2023-03-21T00:37:57.438Z,98699.80
2023-03-21T00:41:31.637Z,98692.51
2023-03-21T00:44:37.445Z,98691.84
2023-03-21T00:47:53.779Z,98689.86
2023-03-21T00:51:13.197Z,98692.03
2023-03-21T00:54:29.843Z,98693.88
2023-03-21T00:57:50.157Z,98699.69
2023-03-21T01:01:05.198Z,98683.34
2023-03-21T01:04:22.059Z,98686.45
2023-03-21T01:07:38.182Z,98684.80
2023-03-21T01:10:57.468Z,98685.03
2023-03-21T01:14:22.482Z,98686.06
2023-03-21T01:17:32.270Z,98689.33
2023-03-21T01:20:51.694Z,98688.05
2023-03-21T01:24:08.733Z,98690.80
2023-03-21T01:27:25.070Z,98684.04
2023-03-21T01:30:42.174Z,98684.52
2023-03-21T01:33:59.118Z,98691.46
2023-03-21T01:37:15.200Z,98690.80
2023-03-21T01:40:35.914Z,98687.34
2023-03-21T01:44:00.438Z,98695.95
2023-03-21T01:47:18.193Z,98690.47
2023-03-21T01:50:35.094Z,98693.73
2023-03-21T01:53:53.922Z,98698.22
2023-03-21T01:57:14.533Z,98697.56
2023-03-21T02:00:34.762Z,98696.57
2023-03-21T02:03:55.347Z,98691.17
2023-03-21T02:07:18.977Z,98691.80
2023-03-21T02:10:40.437Z,98692.27
2023-03-21T02:14:06.210Z,98689.99
2023-03-21T02:17:23.516Z,98683.86
2023-03-21T02:21:44.122Z,98689.15
2023-03-21T02:25:36.231Z,98679.50
2023-03-21T02:28:57.200Z,98683.28
2023-03-21T02:32:31.518Z,98680.97
2023-03-21T02:36:15.190Z,98677.05
2023-03-21T02:39:37.469Z,98682.81
2023-03-21T02:43:07.252Z,98683.70
2023-03-21T02:46:33.382Z,98682.86
2023-03-21T02:49:53.855Z,98688.81
2023-03-21T02:53:13.292Z,98687.34
2023-03-21T02:56:32.785Z,98684.17
2023-03-21T02:59:54.524Z,98685.51
2023-03-21T03:03:15.949Z,98684.04
2023-03-21T03:06:34.392Z,98684.41
2023-03-21T03:10:08.809Z,98685.51
2023-03-21T03:13:43.897Z,98679.45
2023-03-21T03:17:09.498Z,98688.39
2023-03-21T03:20:40.008Z,98683.64
2023-03-21T03:24:01.140Z,98682.51
2023-03-21T03:27:23.045Z,98685.81
2023-03-21T03:30:48.813Z,98688.46
2023-03-21T03:34:03.576Z,98686.00
2023-03-21T03:37:26.985Z,98682.17
2023-03-21T03:40:51.742Z,98687.03
2023-03-21T03:44:22.434Z,98679.50
2023-03-21T03:47:56.009Z,98675.67
2023-03-21T03:51:07.977Z,98683.28
2023-03-21T03:54:36.095Z,98683.09
2023-03-21T03:57:53.253Z,98684.97
2023-03-21T04:01:09.419Z,98690.56
2023-03-21T04:04:29.403Z,98687.44
2023-03-21T04:07:43.553Z,98690.56
2023-03-21T04:10:59.699Z,98693.02
2023-03-21T04:14:16.524Z,98694.86
2023-03-21T04:17:33.805Z,98688.73
2023-03-21T04:20:50.135Z,98688.91
2023-03-21T04:24:08.187Z,98693.86
2023-03-21T04:27:24.804Z,98685.09
2023-03-21T04:31:03.468Z,98681.66
2023-03-21T04:34:15.935Z,98680.89
2023-03-21T04:37:34.682Z,98679.45
2023-03-21T04:40:51.120Z,98692.45
2023-03-21T04:44:07.912Z,98682.06
2023-03-21T04:47:25.830Z,98682.06
2023-03-21T04:50:43.436Z,98682.54
2023-03-21T04:53:59.728Z,98688.64
2023-03-21T04:57:16.052Z,98686.00
2023-03-21T05:00:32.811Z,98693.13
2023-03-21T05:03:49.059Z,98701.06
2023-03-21T05:07:05.952Z,98698.41
2023-03-21T05:10:22.434Z,98696.09
2023-03-21T05:13:38.544Z,98692.64
2023-03-21T05:16:58.500Z,98692.61
2023-03-21T05:20:18.540Z,98696.88
2023-03-21T05:23:36.802Z,98694.56
2023-03-21T05:26:56.908Z,98699.16
2023-03-21T05:30:21.067Z,98701.25
2023-03-21T05:33:38.216Z,98698.89
2023-03-21T05:36:54.603Z,98700.48
2023-03-21T05:40:14.977Z,98712.72
2023-03-21T05:43:32.986Z,98719.88
2023-03-21T05:46:49.396Z,98719.58
2023-03-21T05:50:07.668Z,98720.17
2023-03-21T05:53:24.139Z,98727.63
2023-03-21T05:56:40.852Z,98731.75
2023-03-21T05:59:58.640Z,98739.54
2023-03-21T06:03:16.120Z,98737.19
2023-03-21T06:06:46.490Z,98738.66
2023-03-21T06:10:02.849Z,98737.67
2023-03-21T06:13:18.904Z,98730.25
2023-03-21T06:16:35.480Z,98726.94
2023-03-21T06:19:51.643Z,98737.22
2023-03-21T06:23:12.217Z,98744.67
2023-03-21T06:26:28.351Z,98737.89
2023-03-21T06:29:44.593Z,98731.60
2023-03-21T06:33:01.120Z,98730.42
2023-03-21T06:36:19.152Z,98733.22
2023-03-21T06:39:35.510Z,98735.17
2023-03-21T06:42:51.803Z,98742.00
2023-03-21T06:46:09.016Z,98736.83
2023-03-21T06:49:26.930Z,98738.48
2023-03-21T06:52:44.689Z,98735.44
2023-03-21T06:56:01.911Z,98745.55
2023-03-21T06:59:19.958Z,98743.77
2023-03-21T07:02:38.747Z,98743.56
2023-03-21T07:05:58.761Z,98749.63
2023-03-21T07:09:17.649Z,98751.62
2023-03-21T07:12:34.896Z,98742.83
2023-03-21T07:15:55.837Z,98747.76
2023-03-21T07:19:13.122Z,98756.52
2023-03-21T07:22:29.781Z,98748.64
2023-03-21T07:25:45.984Z,98752.28
2023-03-21T07:29:02.375Z,98746.98
2023-03-21T07:32:18.687Z,98736.28
2023-03-21T07:35:35.116Z,98744.24
2023-03-21T07:38:52.265Z,98744.58
2023-03-21T07:42:12.304Z,98745.80
2023-03-21T07:45:29.044Z,98741.45
2023-03-21T07:48:45.758Z,98747.27
2023-03-21T07:52:04.678Z,98753.38
2023-03-21T07:55:22.590Z,98758.47
2023-03-21T07:58:39.262Z,98760.88
2023-03-21T08:01:55.684Z,98757.48
2023-03-21T08:05:12.801Z,98758.03
2023-03-21T08:08:28.701Z,98759.14
2023-03-21T08:11:45.290Z,98756.39
2023-03-21T08:15:01.800Z,98756.82
2023-03-21T08:18:18.773Z,98761.06
2023-03-21T08:21:35.121Z,98755.79
2023-03-21T08:24:51.778Z,98764.20
2023-03-21T08:28:08.716Z,98762.41
2023-03-21T08:31:26.378Z,98769.88
2023-03-21T08:34:43.547Z,98761.91
2023-03-21T08:38:00.150Z,98767.98
2023-03-21T08:41:21.280Z,98771.19
2023-03-21T08:44:39.670Z,98769.16
2023-03-21T08:47:56.891Z,98771.84
2023-03-21T08:51:14.474Z,98772.31
2023-03-21T08:54:32.057Z,98781.73
2023-03-21T08:57:48.625Z,98784.02
2023-03-21T09:01:05.835Z,98788.98
2023-03-21T09:04:22.667Z,98788.41
2023-03-21T09:07:40.166Z,98785.30
2023-03-21T09:10:59.856Z,98783.83
2023-03-21T09:14:16.710Z,98790.72
2023-03-21T09:17:33.516Z,98795.36
2023-03-21T09:20:51.470Z,98793.81
2023-03-21T09:24:08.103Z,98797.91
2023-03-21T09:27:26.788Z,98798.50
2023-03-21T09:30:45.458Z,98802.15
2023-03-21T09:34:03.346Z,98794.98
2023-03-21T09:37:22.023Z,98797.84
2023-03-21T09:40:54.768Z,98795.63
2023-03-21T09:44:38.538Z,98795.80
2023-03-21T09:47:59.105Z,98793.18
2023-03-21T09:51:21.737Z,98801.40
2023-03-21T09:54:41.327Z,98799.09
2023-03-21T09:58:03.884Z,98800.23
2023-03-21T10:01:28.097Z,98793.68
2023-03-21T10:04:47.067Z,98800.90
2023-03-21T10:08:07.855Z,98799.80
2023-03-21T10:11:28.142Z,98792.67
2023-03-21T10:14:48.371Z,98794.80
2023-03-21T10:18:10.950Z,98801.95
2023-03-21T10:21:56.941Z,98804.91
2023-03-21T10:24:51.423Z,98798.39
2023-03-21T10:28:08.723Z,98802.19
2023-03-21T10:31:31.171Z,98789.23
2023-03-21T10:34:51.469Z,98799.04
2023-03-21T10:38:07.940Z,98797.39
2023-03-21T10:41:24.469Z,98799.84
2023-03-21T10:44:43.474Z,98801.89
2023-03-21T10:48:01.253Z,98800.08
2023-03-21T10:51:23.581Z,98794.13
2023-03-21T10:54:41.634Z,98797.97
2023-03-21T10:58:01.397Z,98794.31
2023-03-21T11:01:24.885Z,98797.78
2023-03-21T11:04:41.984Z,98799.34
2023-03-21T11:08:04.200Z,98802.90
2023-03-21T11:11:30.193Z,98797.58
2023-03-21T11:14:49.523Z,98797.58
2023-03-21T11:18:03.721Z,98802.59
2023-03-21T11:21:24.801Z,98800.10
2023-03-21T11:24:43.354Z,98800.36
2023-03-21T11:28:03.527Z,98802.31
2023-03-21T11:31:20.633Z,98800.05
2023-03-21T11:34:43.793Z,98798.74
2023-03-21T11:38:03.720Z,98795.89
2023-03-21T11:41:29.307Z,98792.72
2023-03-21T11:44:53.320Z,98784.81
2023-03-21T11:48:14.381Z,98789.57
2023-03-21T11:51:37.682Z,98779.95
2023-03-21T11:55:26.753Z,98783.86
2023-03-21T11:58:57.958Z,98783.67
2023-03-21T12:02:32.629Z,98786.77
2023-03-21T12:05:53.653Z,98783.16
2023-03-21T12:09:34.635Z,98780.45
2023-03-21T12:12:56.393Z,98782.00
2023-03-21T12:16:25.452Z,98772.58
2023-03-21T12:19:56.438Z,98777.64
2023-03-21T12:23:47.806Z,98774.98
2023-03-21T12:27:09.144Z,98774.43
2023-03-21T12:30:39.673Z,98773.14
2023-03-21T12:34:07.247Z,98765.36
2023-03-21T12:37:29.629Z,98767.77
2023-03-21T12:41:08.130Z,98759.86
2023-03-21T12:44:27.028Z,98764.70
2023-03-21T12:47:46.486Z,98756.73
2023-03-21T12:51:05.663Z,98756.59
2023-03-21T12:54:29.628Z,98754.14
2023-03-21T12:57:57.574Z,98756.29
2023-03-21T13:01:12.167Z,98755.30
2023-03-21T13:04:47.430Z,98754.94
2023-03-21T13:08:07.940Z,98755.04
2023-03-21T13:11:27.751Z,98759.28
2023-03-21T13:14:49.362Z,98751.31
2023-03-21T13:18:13.325Z,98749.28
2023-03-21T13:21:38.064Z,98754.03
2023-03-21T13:24:58.815Z,98751.52
2023-03-21T13:28:25.884Z,98744.91
2023-03-21T13:31:51.767Z,98742.80
2023-03-21T13:35:10.697Z,98746.30
2023-03-21T13:38:32.642Z,98745.39
2023-03-21T13:41:52.981Z,98749.89
2023-03-21T13:45:15.706Z,98742.19
2023-03-21T13:48:49.363Z,98737.33
2023-03-21T13:52:04.033Z,98748.02
2023-03-21T13:55:27.122Z,98742.06
2023-03-21T13:58:48.562Z,98739.53
2023-03-21T14:05:29.700Z,98734.42
2023-03-21T14:08:49.240Z,98729.92
2023-03-21T14:12:07.695Z,98731.38
2023-03-21T14:15:29.468Z,98730.38
2023-03-21T14:18:55.784Z,98732.38
2023-03-21T14:22:18.106Z,98741.28
2023-03-21T14:25:46.671Z,98738.17
2023-03-21T14:28:59.835Z,98745.96
2023-03-21T14:32:26.752Z,98744.51
2023-03-21T14:35:43.256Z,98749.00
2023-03-21T14:39:16.076Z,98744.05
2023-03-21T14:42:36.562Z,98740.34
2023-03-21T14:45:55.560Z,98734.84
2023-03-21T14:49:29.901Z,98733.64
2023-03-21T14:52:48.622Z,98730.17
2023-03-21T14:56:08.458Z,98727.72
2023-03-21T14:59:29.406Z,98733.83
2023-03-21T15:02:48.352Z,98731.73
2023-03-21T15:06:06.411Z,98727.34
2023-03-21T15:09:28.768Z,98726.46
2023-03-21T15:12:48.231Z,98730.02
2023-03-21T15:16:04.833Z,98726.17
2023-03-21T15:19:26.006Z,98725.83
2023-03-21T15:22:45.768Z,98721.33
2023-03-21T15:26:02.844Z,98713.88
2023-03-21T15:29:21.195Z,98715.56
2023-03-21T15:32:39.031Z,98727.36
2023-03-21T15:36:01.139Z,98727.46
2023-03-21T15:39:22.455Z,98728.46
2023-03-21T15:42:45.095Z,98729.55
2023-03-21T15:46:03.370Z,98725.09
2023-03-21T15:49:35.414Z,98723.81
2023-03-21T15:52:52.058Z,98723.16
2023-03-21T15:56:12.751Z,98720.23
2023-03-21T15:59:31.521Z,98721.88
2023-03-21T16:02:49.695Z,98725.69
2023-03-21T16:06:29.189Z,98724.41
2023-03-21T16:09:55.564Z,98724.59
2023-03-21T16:13:12.937Z,98717.70
2023-03-21T16:16:32.201Z,98726.69
2023-03-21T16:19:49.391Z,98728.86
2023-03-21T16:23:06.160Z,98724.91
2023-03-21T16:26:26.384Z,98728.11
2023-03-21T16:29:43.127Z,98727.22
2023-03-21T16:32:59.695Z,98730.23
2023-03-21T16:36:21.301Z,98727.64
2023-03-21T16:39:38.113Z,98729.19
2023-03-21T16:42:54.352Z,98732.35
2023-03-21T16:46:10.784Z,98731.40
2023-03-21T16:49:33.524Z,98734.89
2023-03-21T16:52:49.638Z,98744.63
2023-03-21T16:56:07.017Z,98739.70
2023-03-21T16:59:24.365Z,98738.38
2023-03-21T17:02:40.789Z,98735.27
2023-03-21T17:05:57.198Z,98735.27
2023-03-21T17:09:15.436Z,98733.45
2023-03-21T17:12:31.657Z,98734.92
2023-03-21T17:15:48.283Z,98739.38
2023-03-21T17:19:05.623Z,98735.92
2023-03-21T17:22:22.183Z,98747.32
2023-03-21T17:25:38.628Z,98741.39
2023-03-21T17:28:55.497Z,98748.20
2023-03-21T17:32:12.071Z,98742.09
2023-03-21T17:38:46.647Z,98761.42
2023-03-21T17:42:03.421Z,98757.88
2023-03-21T17:45:21.254Z,98754.63
2023-03-21T17:48:37.524Z,98762.41
2023-03-21T17:51:54.713Z,98758.46
2023-03-21T17:55:12.505Z,98759.33
2023-03-21T17:58:31.919Z,98767.09
2023-03-21T18:01:48.661Z,98754.06
2023-03-21T18:05:04.990Z,98759.39
2023-03-21T18:08:22.098Z,98758.05
2023-03-21T18:11:38.504Z,98765.80
2023-03-21T18:14:54.485Z,98769.92
2023-03-21T18:18:12.821Z,98769.61
2023-03-21T18:21:32.811Z,98773.06
2023-03-21T18:24:47.879Z,98786.28
2023-03-21T18:28:11.407Z,98777.18
2023-03-21T18:31:29.689Z,98778.84
2023-03-21T18:34:47.648Z,98773.73
2023-03-21T18:38:03.817Z,98775.70
2023-03-21T18:41:21.825Z,98777.22
2023-03-21T18:44:42.145Z,98778.70
2023-03-21T18:47:58.642Z,98769.29
2023-03-21T18:51:16.532Z,98771.94
2023-03-21T18:54:32.686Z,98774.89
2023-03-21T18:57:49.270Z,98775.38
2023-03-21T19:01:07.621Z,98777.36
2023-03-21T19:04:29.941Z,98780.68
2023-03-21T19:07:41.279Z,98774.89
2023-03-21T19:11:00.105Z,98771.26
2023-03-21T19:14:20.766Z,98777.36
2023-03-21T19:18:24.856Z,98777.86
2023-03-21T19:20:59.422Z,98771.76
2023-03-21T19:24:27.091Z,98781.66
2023-03-21T19:27:34.518Z,98775.38
2023-03-21T19:30:54.967Z,98777.84
2023-03-21T19:34:11.886Z,98779.68
2023-03-21T19:37:35.386Z,98775.70
2023-03-21T19:40:52.420Z,98782.16
2023-03-21T19:44:15.434Z,98779.19
2023-03-21T19:47:32.934Z,98783.14
2023-03-21T19:51:25.970Z,98784.84
2023-03-21T19:54:14.069Z,98791.27
2023-03-21T19:57:34.894Z,98792.92
2023-03-21T20:00:51.237Z,98791.12
2023-03-21T20:04:07.632Z,98793.90
2023-03-21T20:07:24.033Z,98798.52
2023-03-21T20:10:40.732Z,98786.59
2023-03-21T20:13:58.078Z,98790.26
2023-03-21T20:17:16.421Z,98785.11
2023-03-21T20:20:33.102Z,98791.56
2023-03-21T20:23:51.037Z,98797.03
2023-03-21T20:27:07.513Z,98791.25
2023-03-21T20:30:26.229Z,98777.90
2023-03-21T20:33:43.393Z,98789.14
2023-03-21T20:36:59.612Z,98781.84
2023-03-21T20:40:18.769Z,98794.75
2023-03-21T20:46:53.572Z,98793.09
2023-03-21T20:50:10.382Z,98790.45
2023-03-21T20:53:26.544Z,98789.95
2023-03-21T20:56:42.851Z,98791.12
2023-03-21T20:59:59.065Z,98785.16
2023-03-21T21:03:17.496Z,98784.67
2023-03-21T21:06:34.613Z,98782.34
2023-03-21T21:09:51.350Z,98774.73
2023-03-21T21:13:08.347Z,98785.48
2023-03-21T21:16:24.934Z,98781.85
2023-03-21T21:19:43.502Z,98783.16
2023-03-21T21:23:25.596Z,98788.16
2023-03-21T21:26:36.313Z,98788.62
2023-03-21T21:29:53.041Z,98784.50
2023-03-21T21:33:10.261Z,98787.63
2023-03-21T21:36:26.895Z,98783.33
2023-03-21T21:39:43.015Z,98787.63
2023-03-21T21:43:01.194Z,98791.93
2023-03-21T21:46:17.886Z,98784.50
2023-03-21T21:49:34.231Z,98780.38
2023-03-21T21:52:52.018Z,98781.36
2023-03-21T21:56:08.331Z,98780.69
2023-03-21T21:59:25.521Z,98775.44
2023-03-21T22:02:41.785Z,98777.73
2023-03-21T22:05:58.684Z,98779.70
2023-03-21T22:09:16.517Z,98790.27
2023-03-21T22:12:33.374Z,98786.00
2023-03-21T22:15:51.318Z,98779.91
2023-03-21T22:19:07.627Z,98783.36
2023-03-21T22:22:23.693Z,98783.05
2023-03-21T22:25:40.085Z,98779.72
2023-03-21T22:28:56.799Z,98783.35
2023-03-21T22:32:13.596Z,98783.70
2023-03-21T22:35:29.914Z,98775.26
2023-03-21T22:38:46.161Z,98782.71
2023-03-21T22:42:05.822Z,98781.38
2023-03-21T22:45:22.505Z,98776.91
2023-03-21T22:48:39.335Z,98776.91
2023-03-21T22:51:55.422Z,98773.61
2023-03-21T22:55:13.603Z,98771.95
2023-03-21T22:58:29.759Z,98766.52
2023-03-21T23:01:45.876Z,98778.42
2023-03-21T23:05:01.855Z,98771.48
2023-03-21T23:08:18.382Z,98769.17
2023-03-21T23:11:34.656Z,98768.36
2023-03-21T23:14:50.717Z,98763.72
2023-03-21T23:18:07.751Z,98765.05
2023-03-21T23:21:24.686Z,98766.04
2023-03-21T23:24:40.955Z,98764.04
2023-03-21T23:27:58.039Z,98757.27
2023-03-21T23:31:21.234Z,98766.53
2023-03-21T23:34:37.454Z,98759.94
2023-03-21T23:37:55.252Z,98756.31
2023-03-21T23:41:16.688Z,98757.78
2023-03-21T23:44:39.261Z,98752.50
2023-03-21T23:47:55.311Z,98747.39
2023-03-21T23:51:11.858Z,98758.28
2023-03-21T23:54:28.048Z,98747.22
2023-03-21T23:57:44.922Z,98749.20
